createdAt,value
2022-11-22T00:00:28.001Z,6.29
2022-11-22T00:02:55.317Z,6.36
2022-11-22T00:05:22.400Z,6.53
2022-11-22T00:07:49.388Z,6.27
2022-11-22T00:10:16.658Z,6.50
2022-11-22T00:12:44.529Z,6.56
2022-11-22T00:15:12.813Z,6.23
2022-11-22T00:17:39.811Z,6.33
2022-11-22T00:20:10.737Z,6.47
2022-11-22T00:22:43.942Z,6.44
2022-11-22T00:25:11.565Z,6.39
2022-11-22T00:27:38.552Z,6.35
2022-11-22T00:30:06.241Z,6.46
2022-11-22T00:32:33.269Z,6.42
2022-11-22T00:35:00.214Z,6.44
2022-11-22T00:37:27.263Z,6.39
2022-11-22T00:39:54.264Z,6.14
2022-11-22T00:42:21.212Z,6.33
2022-11-22T00:44:48.154Z,6.26
2022-11-22T00:47:15.051Z,6.30
2022-11-22T00:49:42.113Z,6.29
2022-11-22T00:52:09.074Z,6.05
2022-11-22T00:54:36.085Z,5.99
2022-11-22T00:57:03.328Z,5.73
2022-11-22T00:59:30.600Z,6.01
2022-11-22T01:01:57.827Z,5.69
2022-11-22T01:04:24.819Z,5.88
2022-11-22T01:06:51.751Z,5.73
2022-11-22T01:09:21.709Z,5.82
2022-11-22T01:11:49.038Z,6.02
2022-11-22T01:14:17.040Z,5.86
2022-11-22T01:16:44.451Z,5.79
2022-11-22T01:19:11.506Z,5.54
2022-11-22T01:21:38.910Z,5.34
2022-11-22T01:24:06.459Z,5.75
2022-11-22T01:26:34.195Z,5.41
2022-11-22T01:29:01.295Z,5.22
2022-11-22T01:31:30.196Z,5.14
2022-11-22T01:33:59.132Z,5.30
2022-11-22T01:36:27.632Z,5.47
2022-11-22T01:38:54.911Z,5.32
2022-11-22T01:41:22.066Z,4.96
2022-11-22T01:43:49.119Z,5.25
2022-11-22T01:46:34.560Z,5.27
2022-11-22T01:49:06.137Z,5.37
2022-11-22T01:51:38.807Z,5.24
2022-11-22T01:54:10.671Z,5.37
2022-11-22T01:56:39.706Z,5.06
2022-11-22T01:59:13.692Z,5.21
2022-11-22T02:01:40.671Z,5.15
2022-11-22T02:04:11.090Z,5.24
2022-11-22T02:07:00.109Z,5.31
2022-11-22T02:09:29.559Z,4.99
2022-11-22T02:12:00.374Z,5.13
2022-11-22T02:14:29.037Z,5.22
2022-11-22T02:16:55.980Z,4.75
2022-11-22T02:19:46.533Z,5.27
2022-11-22T02:22:28.191Z,5.15
2022-11-22T02:25:03.123Z,5.22
2022-11-22T02:27:30.036Z,5.00
2022-11-22T02:29:56.890Z,4.95
2022-11-22T02:32:24.044Z,4.92
2022-11-22T02:34:51.914Z,5.11
2022-11-22T02:37:24.163Z,4.70
2022-11-22T02:39:57.431Z,4.67
2022-11-22T02:42:26.302Z,4.82
2022-11-22T02:44:53.165Z,4.72
2022-11-22T02:47:20.093Z,4.71
2022-11-22T02:49:47.033Z,4.89
2022-11-22T02:52:18.695Z,4.73
2022-11-22T02:54:46.553Z,4.82
2022-11-22T02:57:14.342Z,4.94
2022-11-22T02:59:41.365Z,4.71
2022-11-22T03:02:08.464Z,4.91
2022-11-22T03:04:35.366Z,4.63
2022-11-22T03:07:02.676Z,4.79
2022-11-22T03:09:30.010Z,4.78
2022-11-22T03:11:57.159Z,4.62
2022-11-22T03:14:24.543Z,4.83
2022-11-22T03:16:51.755Z,4.64
2022-11-22T03:19:18.650Z,4.63
2022-11-22T03:21:45.614Z,4.61
2022-11-22T03:24:12.565Z,4.78
2022-11-22T03:26:39.623Z,4.66
2022-11-22T03:29:06.604Z,4.59
2022-11-22T03:31:33.598Z,4.63
2022-11-22T03:34:00.644Z,4.65
2022-11-22T03:36:27.598Z,4.35
2022-11-22T03:38:54.528Z,4.54
2022-11-22T03:41:21.508Z,4.23
2022-11-22T03:43:48.442Z,4.38
2022-11-22T03:46:19.696Z,4.53
2022-11-22T03:48:47.366Z,4.39
2022-11-22T03:51:14.349Z,4.51
2022-11-22T03:53:41.481Z,4.47
2022-11-22T03:56:08.493Z,4.49
2022-11-22T03:58:35.467Z,4.30
2022-11-22T04:01:02.420Z,4.25
2022-11-22T04:03:29.519Z,4.19
2022-11-22T04:05:56.843Z,4.45
2022-11-22T04:08:24.251Z,4.43
2022-11-22T04:10:51.665Z,4.21
2022-11-22T04:13:19.493Z,4.27
2022-11-22T04:15:46.495Z,4.25
2022-11-22T04:18:14.767Z,3.76
2022-11-22T04:21:00.770Z,4.00
2022-11-22T04:23:32.438Z,3.70
2022-11-22T04:26:01.075Z,3.76
2022-11-22T04:28:46.984Z,3.71
2022-11-22T04:31:33.392Z,3.76
2022-11-22T04:34:00.291Z,3.87
2022-11-22T04:36:27.151Z,4.08
2022-11-22T04:38:54.202Z,3.72
2022-11-22T04:41:21.173Z,3.92
2022-11-22T04:44:06.869Z,3.82
2022-11-22T04:46:33.875Z,3.78
2022-11-22T04:49:00.776Z,3.76
2022-11-22T04:51:46.350Z,3.64
2022-11-22T04:54:13.248Z,4.01
2022-11-22T04:56:40.324Z,3.68
2022-11-22T04:59:07.397Z,3.79
2022-11-22T05:01:34.408Z,3.90
2022-11-22T05:04:01.326Z,3.98
2022-11-22T05:06:28.291Z,4.01
2022-11-22T05:08:55.375Z,3.78
2022-11-22T05:11:22.229Z,3.92
2022-11-22T05:13:49.125Z,3.84
2022-11-22T05:16:16.194Z,3.91
2022-11-22T05:18:43.146Z,3.93
2022-11-22T05:21:14.756Z,3.94
2022-11-22T05:23:56.761Z,3.47
2022-11-22T05:26:42.188Z,3.74
2022-11-22T05:29:10.877Z,3.61
2022-11-22T05:31:39.487Z,3.64
2022-11-22T05:34:06.538Z,3.56
2022-11-22T05:36:34.428Z,3.66
2022-11-22T05:39:02.036Z,3.45
2022-11-22T05:41:29.048Z,3.50
2022-11-22T05:43:59.616Z,3.67
2022-11-22T05:46:29.019Z,3.49
2022-11-22T05:48:57.880Z,3.67
2022-11-22T05:51:33.548Z,3.52
2022-11-22T05:54:01.395Z,3.33
2022-11-22T05:56:28.216Z,3.22
2022-11-22T05:58:55.453Z,3.16
2022-11-22T06:01:24.293Z,3.61
2022-11-22T06:03:51.812Z,3.64
2022-11-22T06:06:18.932Z,3.29
2022-11-22T06:08:48.365Z,3.66
2022-11-22T06:11:18.759Z,3.66
2022-11-22T06:13:48.169Z,3.54
2022-11-22T06:16:15.750Z,3.72
2022-11-22T06:18:42.994Z,3.71
2022-11-22T06:21:15.582Z,3.55
2022-11-22T06:23:42.587Z,3.48
2022-11-22T06:26:14.904Z,3.68
2022-11-22T06:28:42.225Z,3.51
2022-11-22T06:31:20.556Z,3.71
2022-11-22T06:33:48.179Z,3.52
2022-11-22T06:36:17.636Z,3.80
2022-11-22T06:38:45.749Z,3.84
2022-11-22T06:41:15.073Z,3.84
2022-11-22T06:43:48.278Z,3.85
2022-11-22T06:46:20.551Z,3.63
2022-11-22T06:48:47.992Z,3.55
2022-11-22T06:51:26.414Z,3.64
2022-11-22T06:53:57.062Z,3.91
2022-11-22T06:56:32.652Z,3.94
2022-11-22T06:59:04.062Z,3.82
2022-11-22T07:01:32.172Z,3.65
2022-11-22T07:04:00.130Z,3.98
2022-11-22T07:06:29.746Z,4.03
2022-11-22T07:08:56.953Z,4.08
2022-11-22T07:11:25.996Z,4.12
2022-11-22T07:13:54.172Z,4.20
2022-11-22T07:16:21.872Z,4.22
2022-11-22T07:18:50.202Z,4.10
2022-11-22T07:21:24.904Z,4.27
2022-11-22T07:23:52.456Z,4.24
2022-11-22T07:26:20.698Z,3.95
2022-11-22T07:28:47.804Z,4.41
2022-11-22T07:31:16.540Z,4.51
2022-11-22T07:33:44.711Z,4.27
2022-11-22T07:36:20.321Z,4.64
2022-11-22T07:38:48.617Z,4.47
2022-11-22T07:41:16.946Z,4.88
2022-11-22T07:43:44.384Z,4.84
2022-11-22T07:46:33.393Z,5.11
2022-11-22T07:49:02.086Z,4.87
2022-11-22T07:51:29.762Z,5.35
2022-11-22T07:53:56.999Z,5.04
2022-11-22T07:56:24.391Z,5.36
2022-11-22T07:58:51.235Z,5.29
2022-11-22T08:01:19.202Z,5.31
2022-11-22T08:03:46.507Z,5.73
2022-11-22T08:06:14.638Z,5.69
2022-11-22T08:08:41.943Z,5.99
2022-11-22T08:11:09.039Z,5.85
2022-11-22T08:13:36.607Z,6.22
2022-11-22T08:16:09.436Z,6.23
2022-11-22T08:18:38.021Z,6.28
2022-11-22T08:21:07.278Z,6.54
2022-11-22T08:23:34.805Z,6.10
2022-11-22T08:26:01.800Z,6.45
2022-11-22T08:28:28.816Z,6.65
2022-11-22T08:31:03.388Z,6.71
2022-11-22T08:33:30.443Z,6.91
2022-11-22T08:35:57.404Z,6.96
2022-11-22T08:38:26.796Z,7.01
2022-11-22T08:40:54.183Z,7.05
2022-11-22T08:43:21.203Z,7.04
2022-11-22T08:45:49.569Z,7.01
2022-11-22T08:48:21.871Z,7.03
2022-11-22T08:51:10.071Z,7.31
2022-11-22T08:53:39.743Z,7.19
2022-11-22T08:56:09.885Z,7.44
2022-11-22T08:58:37.543Z,7.52
2022-11-22T09:01:05.718Z,7.56
2022-11-22T09:03:34.429Z,7.69
2022-11-22T09:09:08.783Z,7.74
2022-11-22T09:11:41.124Z,7.80
2022-11-22T09:14:08.136Z,7.85
2022-11-22T09:16:35.126Z,7.86
2022-11-22T09:19:02.028Z,8.07
2022-11-22T09:21:28.957Z,8.15
2022-11-22T09:23:55.849Z,8.15
2022-11-22T09:26:25.376Z,8.22
2022-11-22T09:28:53.519Z,8.15
2022-11-22T09:31:24.052Z,8.28
2022-11-22T09:33:52.384Z,8.36
2022-11-22T09:36:22.034Z,8.23
2022-11-22T09:38:49.725Z,8.52
2022-11-22T09:41:16.485Z,8.51
2022-11-22T09:43:43.314Z,8.53
2022-11-22T09:46:34.327Z,8.60
2022-11-22T09:49:40.204Z,8.55
2022-11-22T09:52:10.722Z,8.51
2022-11-22T09:54:48.375Z,8.57
2022-11-22T09:57:25.083Z,8.53
2022-11-22T10:00:03.989Z,8.47
2022-11-22T10:02:59.890Z,8.38
2022-11-22T10:05:46.314Z,8.18
2022-11-22T10:08:39.551Z,8.27
2022-11-22T10:11:18.124Z,7.84
2022-11-22T10:13:56.586Z,7.77
2022-11-22T10:16:51.641Z,8.01
2022-11-22T10:19:35.013Z,7.73
2022-11-22T10:22:02.040Z,7.64
2022-11-22T10:24:29.236Z,8.02
2022-11-22T10:26:58.061Z,7.93
2022-11-22T10:29:43.948Z,8.14
2022-11-22T10:32:27.431Z,7.88
2022-11-22T10:35:20.377Z,8.04
2022-11-22T10:38:05.389Z,8.08
2022-11-22T10:40:55.147Z,7.87
2022-11-22T10:43:39.329Z,7.69
2022-11-22T10:46:42.993Z,7.83
2022-11-22T10:49:20.940Z,7.80
2022-11-22T10:52:17.267Z,7.81
2022-11-22T10:55:03.650Z,7.81
2022-11-22T10:57:48.517Z,7.82
2022-11-22T11:00:15.502Z,7.85
2022-11-22T11:03:17.390Z,7.94
2022-11-22T11:11:35.579Z,7.99
2022-11-22T11:14:17.087Z,8.07
2022-11-22T11:16:44.628Z,8.17
2022-11-22T11:19:15.725Z,7.90
2022-11-22T11:21:42.904Z,8.14
2022-11-22T11:24:17.245Z,8.27
2022-11-22T11:26:53.795Z,7.79
2022-11-22T11:29:37.407Z,8.26
2022-11-22T11:32:11.107Z,8.38
2022-11-22T11:34:41.411Z,8.24
2022-11-22T11:37:18.640Z,8.41
2022-11-22T11:39:48.617Z,8.51
2022-11-22T11:42:30.573Z,8.61
2022-11-22T11:45:27.027Z,8.55
2022-11-22T11:47:54.085Z,8.20
2022-11-22T11:50:25.064Z,8.48
2022-11-22T11:52:56.413Z,8.40
2022-11-22T11:55:23.830Z,8.54
2022-11-22T11:57:52.648Z,8.41
2022-11-22T12:00:26.280Z,8.32
2022-11-22T12:03:02.144Z,8.30
2022-11-22T12:05:32.215Z,8.03
2022-11-22T12:08:03.510Z,8.35
2022-11-22T12:11:04.269Z,8.65
2022-11-22T12:14:12.277Z,8.56
2022-11-22T12:16:34.980Z,8.64
2022-11-22T12:19:24.777Z,8.65
2022-11-22T12:22:10.390Z,8.89
2022-11-22T12:25:03.132Z,8.55
2022-11-22T12:27:34.855Z,8.91
2022-11-22T12:30:02.088Z,8.99
2022-11-22T12:32:36.864Z,8.92
2022-11-22T12:35:13.789Z,8.81
2022-11-22T12:37:50.285Z,9.01
2022-11-22T12:40:21.327Z,9.05
2022-11-22T12:42:53.978Z,8.92
2022-11-22T12:45:30.284Z,9.10
2022-11-22T12:48:48.345Z,9.13
2022-11-22T12:51:26.736Z,9.15
2022-11-22T12:54:00.203Z,8.80
2022-11-22T12:56:33.819Z,9.09
2022-11-22T12:59:15.685Z,8.99
2022-11-22T13:01:42.631Z,8.85
2022-11-22T13:04:09.482Z,8.95
2022-11-22T13:07:11.895Z,8.71
2022-11-22T13:09:45.017Z,8.91
2022-11-22T13:12:16.321Z,8.91
2022-11-22T13:14:52.677Z,8.65
2022-11-22T13:17:20.568Z,8.84
2022-11-22T13:19:54.292Z,8.84
2022-11-22T13:22:55.193Z,8.75
2022-11-22T13:25:24.693Z,8.47
2022-11-22T13:27:53.252Z,7.99
2022-11-22T13:30:23.445Z,8.17
2022-11-22T13:32:54.604Z,8.42
2022-11-22T13:35:28.211Z,8.27
2022-11-22T13:38:11.445Z,8.20
2022-11-22T13:40:51.385Z,8.12
2022-11-22T13:43:22.220Z,8.12
2022-11-22T13:45:50.899Z,8.15
2022-11-22T13:48:39.767Z,8.19
2022-11-22T13:51:14.158Z,8.23
2022-11-22T13:53:46.150Z,8.04
2022-11-22T13:56:15.787Z,8.02
2022-11-22T13:58:51.348Z,7.94
2022-11-22T14:01:31.065Z,8.09
2022-11-22T14:04:16.163Z,8.17
2022-11-22T14:06:49.508Z,8.34
2022-11-22T14:09:38.931Z,8.30
2022-11-22T14:12:11.729Z,7.97
2022-11-22T14:14:49.583Z,7.86
2022-11-22T14:17:34.492Z,7.80
2022-11-22T14:20:22.644Z,7.57
2022-11-22T14:23:20.424Z,7.47
2022-11-22T14:26:02.734Z,7.11
2022-11-22T14:28:29.748Z,7.09
2022-11-22T14:30:57.789Z,7.00
2022-11-22T14:33:29.074Z,6.78
2022-11-22T14:36:08.387Z,6.69
2022-11-22T14:38:39.378Z,6.69
2022-11-22T14:41:31.158Z,6.61
2022-11-22T14:44:10.633Z,6.24
2022-11-22T14:46:54.556Z,6.16
2022-11-22T14:49:26.648Z,6.33
2022-11-22T14:51:56.239Z,6.30
2022-11-22T14:54:28.623Z,6.09
2022-11-22T14:57:03.946Z,6.28
2022-11-22T14:59:58.386Z,6.29
2022-11-22T15:02:53.071Z,6.29
2022-11-22T15:09:13.284Z,6.35
2022-11-22T15:09:21.748Z,6.39
2022-11-22T15:11:30.100Z,6.35
2022-11-22T15:14:18.527Z,6.38
2022-11-22T15:57:37.751Z,6.05
2022-11-22T16:00:28.988Z,6.27
2022-11-22T16:03:01.844Z,5.94
2022-11-22T16:06:07.929Z,6.34
2022-11-22T16:08:27.847Z,6.36
2022-11-22T16:10:59.339Z,6.34
2022-11-22T16:13:28.399Z,6.32
2022-11-22T16:16:04.473Z,6.39
2022-11-22T16:18:31.815Z,6.19
2022-11-22T16:21:07.319Z,6.40
2022-11-22T16:23:37.023Z,6.29
2022-11-22T16:26:25.178Z,6.53
2022-11-22T16:28:54.424Z,6.13
2022-11-22T16:31:26.605Z,6.33
2022-11-22T16:33:55.150Z,6.16
2022-11-22T16:36:24.029Z,6.34
2022-11-22T16:38:51.396Z,5.97
2022-11-22T16:41:24.326Z,6.13
2022-11-22T16:44:12.946Z,5.69
2022-11-22T16:46:40.878Z,5.81
2022-11-22T16:49:25.737Z,5.46
2022-11-22T16:51:52.737Z,5.55
2022-11-22T16:54:20.970Z,5.57
2022-11-22T16:56:48.034Z,5.47
2022-11-22T16:59:15.011Z,5.13
2022-11-22T17:01:43.044Z,5.31
2022-11-22T17:04:25.358Z,5.63
2022-11-22T17:06:52.805Z,5.42
2022-11-22T17:09:20.109Z,5.56
2022-11-22T17:11:47.160Z,5.49
2022-11-22T17:14:15.793Z,5.19
2022-11-22T17:16:45.805Z,5.12
2022-11-22T17:22:01.052Z,5.61
2022-11-22T17:24:29.202Z,5.51
2022-11-22T17:26:56.412Z,5.68
2022-11-22T17:32:13.907Z,5.54
2022-11-22T17:34:40.918Z,5.69
2022-11-22T17:37:12.349Z,5.77
2022-11-22T17:39:39.686Z,6.02
2022-11-22T17:42:06.961Z,5.52
2022-11-22T17:44:34.339Z,5.65
2022-11-22T17:47:01.315Z,5.88
2022-11-22T17:49:28.885Z,5.60
2022-11-22T17:51:56.184Z,5.72
2022-11-22T17:54:23.151Z,5.79
2022-11-22T17:56:50.047Z,5.83
2022-11-22T17:59:16.950Z,5.80
2022-11-22T18:01:43.843Z,5.62
2022-11-22T18:04:10.834Z,5.51
2022-11-22T18:06:37.801Z,5.09
2022-11-22T18:09:04.785Z,5.43
2022-11-22T18:11:33.282Z,5.63
2022-11-22T18:14:00.424Z,5.70
2022-11-22T18:16:29.099Z,5.83
2022-11-22T18:18:57.900Z,5.91
2022-11-22T18:21:27.042Z,5.85
2022-11-22T18:23:54.149Z,5.70
2022-11-22T18:26:38.961Z,5.65
2022-11-22T18:31:54.828Z,5.68
2022-11-22T18:34:22.963Z,5.83
2022-11-22T18:36:55.968Z,5.77
2022-11-22T18:39:26.480Z,5.81
2022-11-22T18:41:53.646Z,5.54
2022-11-22T18:44:20.658Z,5.86
2022-11-22T18:46:47.989Z,5.62
2022-11-22T18:49:15.305Z,5.58
2022-11-22T18:51:42.318Z,5.51
2022-11-22T18:54:10.593Z,5.87
2022-11-22T18:56:40.501Z,5.72
2022-11-22T18:59:10.671Z,5.90
2022-11-22T19:01:37.814Z,5.72
2022-11-22T19:04:04.964Z,5.88
2022-11-22T19:06:32.333Z,5.70
2022-11-22T19:08:59.326Z,5.85
2022-11-22T19:11:28.630Z,5.74
2022-11-22T19:13:55.717Z,5.78
2022-11-22T19:16:23.147Z,5.71
2022-11-22T19:18:50.401Z,5.49
2022-11-22T19:21:19.879Z,5.64
2022-11-22T19:23:47.830Z,5.20
2022-11-22T19:26:17.152Z,5.56
2022-11-22T19:28:44.104Z,5.58
2022-11-22T19:31:13.563Z,5.34
2022-11-22T19:33:41.396Z,5.57
2022-11-22T19:36:12.802Z,5.28
2022-11-22T19:38:39.918Z,5.48
2022-11-22T19:41:09.135Z,5.59
2022-11-22T19:43:36.582Z,5.61
2022-11-22T19:46:03.808Z,5.47
2022-11-22T19:48:31.441Z,5.51
2022-11-22T19:50:58.558Z,5.52
2022-11-22T19:53:25.556Z,5.69
2022-11-22T19:55:52.462Z,5.33
2022-11-22T19:58:20.471Z,5.65
2022-11-22T20:00:47.871Z,5.81
2022-11-22T20:03:14.809Z,5.80
2022-11-22T20:05:42.248Z,5.73
2022-11-22T20:08:10.219Z,5.61
2022-11-22T20:10:38.578Z,5.83
2022-11-22T20:13:10.378Z,5.67
2022-11-22T20:15:37.493Z,6.05
2022-11-22T20:18:04.586Z,5.97
2022-11-22T20:20:31.463Z,5.77
2022-11-22T20:22:58.473Z,6.12
2022-11-22T20:25:25.471Z,6.04
2022-11-22T20:27:52.472Z,6.21
2022-11-22T20:30:19.636Z,6.18
2022-11-22T20:32:46.605Z,6.35
2022-11-22T20:35:13.607Z,6.15
2022-11-22T20:37:40.613Z,6.19
2022-11-22T20:40:07.830Z,6.49
2022-11-22T20:42:35.368Z,6.54
2022-11-22T20:45:05.214Z,6.34
2022-11-22T20:47:32.176Z,6.55
2022-11-22T20:49:59.154Z,6.56
2022-11-22T20:52:26.103Z,6.17
2022-11-22T20:54:53.151Z,6.31
2022-11-22T20:57:20.363Z,6.57
2022-11-22T20:59:47.264Z,6.30
2022-11-22T21:02:14.168Z,6.31
2022-11-22T21:04:41.547Z,6.74
2022-11-22T21:07:08.974Z,6.44
2022-11-22T21:09:35.931Z,6.60
2022-11-22T21:12:02.878Z,6.44
2022-11-22T21:14:30.101Z,6.49
2022-11-22T21:16:57.189Z,6.70
2022-11-22T21:19:25.218Z,6.67
2022-11-22T21:21:52.134Z,6.55
2022-11-22T21:24:19.108Z,6.86
2022-11-22T21:26:46.070Z,6.88
2022-11-22T21:29:16.801Z,6.78
2022-11-22T21:31:44.026Z,6.90
2022-11-22T21:34:11.226Z,6.74
2022-11-22T21:36:38.224Z,6.95
2022-11-22T21:39:05.182Z,7.04
2022-11-22T21:41:40.513Z,6.99
2022-11-22T21:44:09.380Z,7.17
2022-11-22T21:46:36.922Z,6.97
2022-11-22T21:49:03.829Z,7.28
2022-11-22T21:51:32.049Z,7.23
2022-11-22T21:54:00.955Z,6.95
2022-11-22T21:56:28.460Z,7.02
2022-11-22T21:58:55.324Z,7.15
2022-11-22T22:01:23.229Z,7.18
2022-11-22T22:03:50.427Z,7.13
2022-11-22T22:06:17.531Z,7.54
2022-11-22T22:08:44.386Z,7.60
2022-11-22T22:11:14.719Z,7.31
2022-11-22T22:13:41.524Z,7.55
2022-11-22T22:16:13.124Z,7.48
2022-11-22T22:18:40.194Z,7.58
2022-11-22T22:21:09.720Z,7.69
2022-11-22T22:23:38.814Z,7.86
2022-11-22T22:26:08.066Z,7.90
2022-11-22T22:28:36.667Z,7.99
2022-11-22T22:31:21.917Z,7.99
2022-11-22T22:33:55.132Z,8.00
2022-11-22T22:36:26.687Z,8.07
2022-11-22T22:38:54.390Z,8.10
2022-11-22T22:41:21.308Z,8.19
2022-11-22T22:43:53.674Z,8.22
2022-11-22T22:46:22.923Z,8.23
2022-11-22T22:48:51.300Z,8.11
2022-11-22T22:51:29.023Z,8.25
2022-11-22T22:53:59.166Z,8.14
2022-11-22T22:56:28.623Z,8.23
2022-11-22T22:58:56.870Z,8.08
2022-11-22T23:01:28.950Z,8.35
2022-11-22T23:03:58.938Z,8.21
2022-11-22T23:06:36.784Z,8.08
2022-11-22T23:09:06.666Z,8.41
2022-11-22T23:11:53.712Z,8.45
2022-11-22T23:14:30.218Z,8.44
2022-11-22T23:16:58.405Z,8.18
2022-11-22T23:19:26.503Z,8.32
2022-11-22T23:21:54.822Z,8.13
2022-11-22T23:24:21.927Z,8.42
2022-11-22T23:26:48.834Z,8.19
2022-11-22T23:29:15.715Z,8.45
2022-11-22T23:31:42.659Z,8.61
2022-11-22T23:34:11.018Z,8.65
2022-11-22T23:36:40.928Z,8.64
2022-11-22T23:39:08.897Z,8.59
2022-11-22T23:41:35.965Z,8.76
2022-11-22T23:44:03.166Z,8.72
2022-11-22T23:46:30.302Z,8.34
2022-11-22T23:48:59.550Z,8.76
2022-11-22T23:51:27.774Z,8.49
2022-11-22T23:53:59.658Z,8.84
2022-11-22T23:56:28.296Z,8.86
2022-11-22T23:58:55.512Z,8.85
